sensor_id;sensor_type;location;lat;lon;timestamp;temperature;humidity
29713;DHT22;16623;53.632;10.016;2022-09-09T00:02:00;14.50;99.90
29713;DHT22;16623;53.632;10.016;2022-09-09T00:04:35;14.50;99.90
29713;DHT22;16623;53.632;10.016;2022-09-09T00:07:28;14.50;99.90
29713;DHT22;16623;53.632;10.016;2022-09-09T00:10:13;14.50;99.90
29713;DHT22;16623;53.632;10.016;2022-09-09T00:12:57;14.60;99.90
29713;DHT22;16623;53.632;10.016;2022-09-09T00:15:38;14.60;99.90
29713;DHT22;16623;53.632;10.016;2022-09-09T00:18:24;14.60;99.90
29713;DHT22;16623;53.632;10.016;2022-09-09T00:21:07;14.70;99.90
29713;DHT22;16623;53.632;10.016;2022-09-09T00:23:39;14.70;99.90
29713;DHT22;16623;53.632;10.016;2022-09-09T00:26:26;14.70;99.90
29713;DHT22;16623;53.632;10.016;2022-09-09T00:29:14;14.70;99.90
29713;DHT22;16623;53.632;10.016;2022-09-09T00:31:45;14.70;99.90
29713;DHT22;16623;53.632;10.016;2022-09-09T00:34:24;14.80;99.90
29713;DHT22;16623;53.632;10.016;2022-09-09T00:36:53;14.80;99.90
29713;DHT22;16623;53.632;10.016;2022-09-09T00:39:41;14.80;99.90
29713;DHT22;16623;53.632;10.016;2022-09-09T00:42:36;14.80;99.90
29713;DHT22;16623;53.632;10.016;2022-09-09T00:45:17;14.90;99.90
29713;DHT22;16623;53.632;10.016;2022-09-09T00:47:50;14.90;99.90
29713;DHT22;16623;53.632;10.016;2022-09-09T00:50:18;14.90;99.90
29713;DHT22;16623;53.632;10.016;2022-09-09T00:53:17;14.90;99.90
29713;DHT22;16623;53.632;10.016;2022-09-09T00:58:31;15.00;99.90
29713;DHT22;16623;53.632;10.016;2022-09-09T01:01:04;15.00;99.90
29713;DHT22;16623;53.632;10.016;2022-09-09T01:06:11;15.00;99.90
29713;DHT22;16623;53.632;10.016;2022-09-09T01:14:30;15.10;99.90
29713;DHT22;16623;53.632;10.016;2022-09-09T01:17:01;15.10;99.90
29713;DHT22;16623;53.632;10.016;2022-09-09T01:22:20;15.10;99.90
29713;DHT22;16623;53.632;10.016;2022-09-09T01:27:52;15.10;99.90
29713;DHT22;16623;53.632;10.016;2022-09-09T01:30:20;15.10;99.90
29713;DHT22;16623;53.632;10.016;2022-09-09T01:32:53;15.10;99.90
29713;DHT22;16623;53.632;10.016;2022-09-09T01:35:31;15.10;99.90
29713;DHT22;16623;53.632;10.016;2022-09-09T01:37:58;15.10;99.90
29713;DHT22;16623;53.632;10.016;2022-09-09T01:40:24;15.00;99.90
29713;DHT22;16623;53.632;10.016;2022-09-09T01:42:51;15.00;99.90
29713;DHT22;16623;53.632;10.016;2022-09-09T01:45:17;15.00;99.90
29713;DHT22;16623;53.632;10.016;2022-09-09T01:47:43;15.00;99.90
29713;DHT22;16623;53.632;10.016;2022-09-09T01:50:10;15.00;99.90
29713;DHT22;16623;53.632;10.016;2022-09-09T01:52:38;15.00;99.90
29713;DHT22;16623;53.632;10.016;2022-09-09T01:55:05;14.90;99.90
29713;DHT22;16623;53.632;10.016;2022-09-09T01:57:38;14.90;99.90
29713;DHT22;16623;53.632;10.016;2022-09-09T02:00:09;14.90;99.90
29713;DHT22;16623;53.632;10.016;2022-09-09T02:03:03;14.90;99.90
29713;DHT22;16623;53.632;10.016;2022-09-09T02:05:41;14.90;99.90
29713;DHT22;16623;53.632;10.016;2022-09-09T02:08:23;14.90;99.90
29713;DHT22;16623;53.632;10.016;2022-09-09T02:10:59;14.80;99.90
29713;DHT22;16623;53.632;10.016;2022-09-09T02:13:27;14.80;99.90
29713;DHT22;16623;53.632;10.016;2022-09-09T02:16:07;14.80;99.90
29713;DHT22;16623;53.632;10.016;2022-09-09T02:18:44;14.80;99.90
29713;DHT22;16623;53.632;10.016;2022-09-09T02:21:13;14.80;99.90
29713;DHT22;16623;53.632;10.016;2022-09-09T02:23:41;14.90;99.90
29713;DHT22;16623;53.632;10.016;2022-09-09T02:26:09;14.80;99.90
29713;DHT22;16623;53.632;10.016;2022-09-09T02:28:37;14.70;99.90
29713;DHT22;16623;53.632;10.016;2022-09-09T02:31:04;14.70;99.90
29713;DHT22;16623;53.632;10.016;2022-09-09T02:33:35;14.70;99.90
29713;DHT22;16623;53.632;10.016;2022-09-09T02:36:03;14.70;99.90
29713;DHT22;16623;53.632;10.016;2022-09-09T02:38:35;14.70;99.90
29713;DHT22;16623;53.632;10.016;2022-09-09T02:41:02;14.70;99.90
29713;DHT22;16623;53.632;10.016;2022-09-09T02:43:38;14.70;99.90
29713;DHT22;16623;53.632;10.016;2022-09-09T02:46:08;14.60;99.90
29713;DHT22;16623;53.632;10.016;2022-09-09T02:48:47;14.60;99.90
29713;DHT22;16623;53.632;10.016;2022-09-09T02:51:28;14.70;99.90
29713;DHT22;16623;53.632;10.016;2022-09-09T02:54:10;14.60;99.90
29713;DHT22;16623;53.632;10.016;2022-09-09T02:56:42;14.60;99.90
29713;DHT22;16623;53.632;10.016;2022-09-09T02:59:09;14.60;99.90
29713;DHT22;16623;53.632;10.016;2022-09-09T03:01:35;14.50;99.90
29713;DHT22;16623;53.632;10.016;2022-09-09T03:04:01;14.50;99.90
29713;DHT22;16623;53.632;10.016;2022-09-09T03:06:27;14.50;99.90
29713;DHT22;16623;53.632;10.016;2022-09-09T03:08:53;14.50;99.90
29713;DHT22;16623;53.632;10.016;2022-09-09T03:11:19;14.60;99.90
29713;DHT22;16623;53.632;10.016;2022-09-09T03:13:44;14.60;99.90
29713;DHT22;16623;53.632;10.016;2022-09-09T03:16:10;14.60;99.90
29713;DHT22;16623;53.632;10.016;2022-09-09T03:18:35;14.60;99.90
29713;DHT22;16623;53.632;10.016;2022-09-09T03:21:01;14.60;99.90
29713;DHT22;16623;53.632;10.016;2022-09-09T03:23:26;14.60;99.90
29713;DHT22;16623;53.632;10.016;2022-09-09T03:25:52;14.60;99.90
29713;DHT22;16623;53.632;10.016;2022-09-09T03:28:19;14.60;99.90
29713;DHT22;16623;53.632;10.016;2022-09-09T03:30:45;14.60;99.90
29713;DHT22;16623;53.632;10.016;2022-09-09T03:33:11;14.60;99.90
29713;DHT22;16623;53.632;10.016;2022-09-09T03:35:37;14.60;99.90
29713;DHT22;16623;53.632;10.016;2022-09-09T03:38:03;14.60;99.90
29713;DHT22;16623;53.632;10.016;2022-09-09T03:40:28;14.60;99.90
29713;DHT22;16623;53.632;10.016;2022-09-09T03:42:54;14.60;99.90
29713;DHT22;16623;53.632;10.016;2022-09-09T03:45:20;14.50;99.90
29713;DHT22;16623;53.632;10.016;2022-09-09T03:47:45;14.50;99.90
29713;DHT22;16623;53.632;10.016;2022-09-09T03:50:11;14.50;99.90
29713;DHT22;16623;53.632;10.016;2022-09-09T03:52:38;14.40;99.90
29713;DHT22;16623;53.632;10.016;2022-09-09T03:55:04;14.40;99.90
29713;DHT22;16623;53.632;10.016;2022-09-09T03:57:31;14.40;99.90
29713;DHT22;16623;53.632;10.016;2022-09-09T03:59:57;14.30;99.90
29713;DHT22;16623;53.632;10.016;2022-09-09T04:02:23;14.30;99.90
29713;DHT22;16623;53.632;10.016;2022-09-09T04:04:48;14.30;99.90
29713;DHT22;16623;53.632;10.016;2022-09-09T04:07:14;14.40;99.90
29713;DHT22;16623;53.632;10.016;2022-09-09T04:09:41;14.30;99.90
29713;DHT22;16623;53.632;10.016;2022-09-09T04:12:06;14.30;99.90
29713;DHT22;16623;53.632;10.016;2022-09-09T04:14:32;14.30;99.90
29713;DHT22;16623;53.632;10.016;2022-09-09T04:16:57;14.30;99.90
29713;DHT22;16623;53.632;10.016;2022-09-09T04:19:24;14.30;99.90
29713;DHT22;16623;53.632;10.016;2022-09-09T04:21:50;14.40;99.90
29713;DHT22;16623;53.632;10.016;2022-09-09T04:24:17;14.30;99.90
29713;DHT22;16623;53.632;10.016;2022-09-09T04:26:42;14.30;99.90
29713;DHT22;16623;53.632;10.016;2022-09-09T04:29:08;14.30;99.90
29713;DHT22;16623;53.632;10.016;2022-09-09T04:31:34;14.30;99.90
29713;DHT22;16623;53.632;10.016;2022-09-09T04:33:59;14.20;99.90
29713;DHT22;16623;53.632;10.016;2022-09-09T04:36:30;14.20;99.90
29713;DHT22;16623;53.632;10.016;2022-09-09T04:38:57;14.30;99.90
29713;DHT22;16623;53.632;10.016;2022-09-09T04:41:23;14.20;99.90
29713;DHT22;16623;53.632;10.016;2022-09-09T04:43:49;14.10;99.90
29713;DHT22;16623;53.632;10.016;2022-09-09T04:46:14;14.10;99.90
29713;DHT22;16623;53.632;10.016;2022-09-09T04:48:42;14.10;99.90
29713;DHT22;16623;53.632;10.016;2022-09-09T04:51:12;14.10;99.90
29713;DHT22;16623;53.632;10.016;2022-09-09T04:53:38;14.10;99.90
29713;DHT22;16623;53.632;10.016;2022-09-09T04:56:10;14.10;99.90
29713;DHT22;16623;53.632;10.016;2022-09-09T04:58:36;14.10;99.90
29713;DHT22;16623;53.632;10.016;2022-09-09T05:01:16;14.20;99.90
29713;DHT22;16623;53.632;10.016;2022-09-09T05:03:45;14.20;99.90
29713;DHT22;16623;53.632;10.016;2022-09-09T05:06:14;14.20;99.90
29713;DHT22;16623;53.632;10.016;2022-09-09T05:08:41;14.20;99.90
29713;DHT22;16623;53.632;10.016;2022-09-09T05:11:33;14.20;99.90
29713;DHT22;16623;53.632;10.016;2022-09-09T05:14:01;14.30;99.90
29713;DHT22;16623;53.632;10.016;2022-09-09T05:16:26;14.30;99.90
29713;DHT22;16623;53.632;10.016;2022-09-09T05:18:52;14.30;99.90
29713;DHT22;16623;53.632;10.016;2022-09-09T05:21:20;14.30;99.90
29713;DHT22;16623;53.632;10.016;2022-09-09T05:23:46;14.30;99.90
29713;DHT22;16623;53.632;10.016;2022-09-09T05:26:17;14.30;99.90
29713;DHT22;16623;53.632;10.016;2022-09-09T05:28:43;14.20;99.90
29713;DHT22;16623;53.632;10.016;2022-09-09T05:31:10;14.20;99.90
29713;DHT22;16623;53.632;10.016;2022-09-09T05:33:38;14.20;99.90
29713;DHT22;16623;53.632;10.016;2022-09-09T05:36:07;14.20;99.90
29713;DHT22;16623;53.632;10.016;2022-09-09T05:38:34;14.20;99.90
29713;DHT22;16623;53.632;10.016;2022-09-09T05:41:01;14.20;99.90
29713;DHT22;16623;53.632;10.016;2022-09-09T05:43:28;14.20;99.90
29713;DHT22;16623;53.632;10.016;2022-09-09T05:46:11;14.20;99.90
29713;DHT22;16623;53.632;10.016;2022-09-09T05:48:38;14.30;99.90
29713;DHT22;16623;53.632;10.016;2022-09-09T05:51:08;14.30;99.90
29713;DHT22;16623;53.632;10.016;2022-09-09T05:53:34;14.40;99.90
29713;DHT22;16623;53.632;10.016;2022-09-09T05:56:05;14.40;99.90
29713;DHT22;16623;53.632;10.016;2022-09-09T05:58:35;14.40;99.90
29713;DHT22;16623;53.632;10.016;2022-09-09T06:01:02;14.40;99.90
29713;DHT22;16623;53.632;10.016;2022-09-09T06:03:28;14.40;99.90
29713;DHT22;16623;53.632;10.016;2022-09-09T06:06:01;14.50;99.90
29713;DHT22;16623;53.632;10.016;2022-09-09T06:08:28;14.50;99.90
29713;DHT22;16623;53.632;10.016;2022-09-09T06:11:01;14.50;99.90
29713;DHT22;16623;53.632;10.016;2022-09-09T06:13:28;14.50;99.90
29713;DHT22;16623;53.632;10.016;2022-09-09T06:15:53;14.60;99.90
29713;DHT22;16623;53.632;10.016;2022-09-09T06:18:19;14.60;99.90
29713;DHT22;16623;53.632;10.016;2022-09-09T06:20:59;14.70;99.90
29713;DHT22;16623;53.632;10.016;2022-09-09T06:23:26;14.70;99.90
29713;DHT22;16623;53.632;10.016;2022-09-09T06:28:33;14.80;99.90
29713;DHT22;16623;53.632;10.016;2022-09-09T06:30:59;14.80;99.90
29713;DHT22;16623;53.632;10.016;2022-09-09T06:33:25;14.80;99.90
29713;DHT22;16623;53.632;10.016;2022-09-09T06:35:52;14.80;99.90
29713;DHT22;16623;53.632;10.016;2022-09-09T06:38:18;14.80;99.90
29713;DHT22;16623;53.632;10.016;2022-09-09T06:40:51;14.80;99.90
29713;DHT22;16623;53.632;10.016;2022-09-09T06:43:17;14.90;99.90
29713;DHT22;16623;53.632;10.016;2022-09-09T06:45:43;14.90;99.90
29713;DHT22;16623;53.632;10.016;2022-09-09T06:48:08;14.90;99.90
29713;DHT22;16623;53.632;10.016;2022-09-09T06:50:34;14.90;99.90
29713;DHT22;16623;53.632;10.016;2022-09-09T06:53:00;15.00;99.90
29713;DHT22;16623;53.632;10.016;2022-09-09T06:55:25;15.00;99.90
29713;DHT22;16623;53.632;10.016;2022-09-09T06:57:51;15.00;99.90
29713;DHT22;16623;53.632;10.016;2022-09-09T07:00:17;15.10;99.90
29713;DHT22;16623;53.632;10.016;2022-09-09T07:02:43;15.10;99.90
29713;DHT22;16623;53.632;10.016;2022-09-09T07:05:09;15.20;99.90
29713;DHT22;16623;53.632;10.016;2022-09-09T07:07:35;15.20;99.90
29713;DHT22;16623;53.632;10.016;2022-09-09T07:10:02;15.30;99.90
29713;DHT22;16623;53.632;10.016;2022-09-09T07:12:29;15.30;99.90
29713;DHT22;16623;53.632;10.016;2022-09-09T07:14:54;15.40;99.90
29713;DHT22;16623;53.632;10.016;2022-09-09T07:17:20;15.50;99.90
29713;DHT22;16623;53.632;10.016;2022-09-09T07:19:45;15.60;99.90
29713;DHT22;16623;53.632;10.016;2022-09-09T07:22:11;15.70;99.90
29713;DHT22;16623;53.632;10.016;2022-09-09T07:24:37;15.80;99.90
29713;DHT22;16623;53.632;10.016;2022-09-09T07:27:03;15.80;99.90
29713;DHT22;16623;53.632;10.016;2022-09-09T07:29:28;15.90;99.90
29713;DHT22;16623;53.632;10.016;2022-09-09T07:31:54;16.00;99.90
29713;DHT22;16623;53.632;10.016;2022-09-09T07:34:19;16.00;99.90
29713;DHT22;16623;53.632;10.016;2022-09-09T07:36:46;16.10;99.90
29713;DHT22;16623;53.632;10.016;2022-09-09T07:39:14;16.00;99.90
29713;DHT22;16623;53.632;10.016;2022-09-09T07:41:42;16.10;99.90
29713;DHT22;16623;53.632;10.016;2022-09-09T07:44:13;16.10;99.90
29713;DHT22;16623;53.632;10.016;2022-09-09T07:46:40;16.20;99.90
29713;DHT22;16623;53.632;10.016;2022-09-09T07:49:07;16.20;99.90
29713;DHT22;16623;53.632;10.016;2022-09-09T07:51:36;16.30;99.90
29713;DHT22;16623;53.632;10.016;2022-09-09T07:54:04;16.40;99.90
29713;DHT22;16623;53.632;10.016;2022-09-09T07:56:30;16.40;99.90
29713;DHT22;16623;53.632;10.016;2022-09-09T07:58:58;16.50;99.90
29713;DHT22;16623;53.632;10.016;2022-09-09T08:01:29;16.50;99.90
29713;DHT22;16623;53.632;10.016;2022-09-09T08:03:57;16.60;99.90
29713;DHT22;16623;53.632;10.016;2022-09-09T08:06:27;16.60;99.90
29713;DHT22;16623;53.632;10.016;2022-09-09T08:08:53;16.60;99.90
29713;DHT22;16623;53.632;10.016;2022-09-09T08:11:21;16.60;99.90
29713;DHT22;16623;53.632;10.016;2022-09-09T08:13:49;16.60;99.90
29713;DHT22;16623;53.632;10.016;2022-09-09T08:16:17;16.70;99.90
29713;DHT22;16623;53.632;10.016;2022-09-09T08:18:43;16.70;99.90
29713;DHT22;16623;53.632;10.016;2022-09-09T08:21:13;16.90;99.90
29713;DHT22;16623;53.632;10.016;2022-09-09T08:23:41;16.90;99.90
29713;DHT22;16623;53.632;10.016;2022-09-09T08:26:15;16.90;99.90
29713;DHT22;16623;53.632;10.016;2022-09-09T08:28:41;17.00;99.90
29713;DHT22;16623;53.632;10.016;2022-09-09T08:31:13;17.10;99.90
29713;DHT22;16623;53.632;10.016;2022-09-09T08:33:40;17.10;99.90
29713;DHT22;16623;53.632;10.016;2022-09-09T08:36:08;17.20;99.90
29713;DHT22;16623;53.632;10.016;2022-09-09T08:38:35;17.30;99.90
29713;DHT22;16623;53.632;10.016;2022-09-09T08:43:58;17.40;99.90
29713;DHT22;16623;53.632;10.016;2022-09-09T08:49:25;17.40;99.90
29713;DHT22;16623;53.632;10.016;2022-09-09T08:51:57;17.50;99.90
29713;DHT22;16623;53.632;10.016;2022-09-09T08:54:27;17.50;99.90
29713;DHT22;16623;53.632;10.016;2022-09-09T08:56:58;17.50;99.90
29713;DHT22;16623;53.632;10.016;2022-09-09T08:59:24;17.50;99.90
29713;DHT22;16623;53.632;10.016;2022-09-09T09:02:08;17.50;99.90
29713;DHT22;16623;53.632;10.016;2022-09-09T09:07:39;17.50;99.90
29713;DHT22;16623;53.632;10.016;2022-09-09T09:12:53;17.60;99.90
29713;DHT22;16623;53.632;10.016;2022-09-09T09:15:23;17.60;99.90
29713;DHT22;16623;53.632;10.016;2022-09-09T09:17:51;17.70;99.90
29713;DHT22;16623;53.632;10.016;2022-09-09T09:23:27;17.80;99.90
29713;DHT22;16623;53.632;10.016;2022-09-09T09:25:59;17.80;99.90
29713;DHT22;16623;53.632;10.016;2022-09-09T09:28:31;17.90;99.90
29713;DHT22;16623;53.632;10.016;2022-09-09T09:31:11;17.90;99.90
29713;DHT22;16623;53.632;10.016;2022-09-09T09:33:50;18.20;99.90
29713;DHT22;16623;53.632;10.016;2022-09-09T09:36:16;18.30;99.90
29713;DHT22;16623;53.632;10.016;2022-09-09T09:38:57;18.50;99.90
29713;DHT22;16623;53.632;10.016;2022-09-09T09:41:31;18.60;99.90
29713;DHT22;16623;53.632;10.016;2022-09-09T09:43:57;18.70;99.90
29713;DHT22;16623;53.632;10.016;2022-09-09T09:46:24;18.70;99.90
29713;DHT22;16623;53.632;10.016;2022-09-09T09:48:58;18.80;99.90
29713;DHT22;16623;53.632;10.016;2022-09-09T09:51:24;18.80;99.90
29713;DHT22;16623;53.632;10.016;2022-09-09T09:53:50;18.70;99.90
29713;DHT22;16623;53.632;10.016;2022-09-09T09:56:26;18.80;99.90
29713;DHT22;16623;53.632;10.016;2022-09-09T09:58:54;18.90;99.90
29713;DHT22;16623;53.632;10.016;2022-09-09T10:01:31;19.00;99.90
29713;DHT22;16623;53.632;10.016;2022-09-09T10:04:18;19.00;99.90
29713;DHT22;16623;53.632;10.016;2022-09-09T10:06:45;19.00;99.90
29713;DHT22;16623;53.632;10.016;2022-09-09T10:09:26;19.00;99.90
29713;DHT22;16623;53.632;10.016;2022-09-09T10:12:21;19.20;99.90
29713;DHT22;16623;53.632;10.016;2022-09-09T10:20:58;19.90;99.90
29713;DHT22;16623;53.632;10.016;2022-09-09T10:26:37;20.40;99.90
29713;DHT22;16623;53.632;10.016;2022-09-09T10:29:15;20.80;99.90
29713;DHT22;16623;53.632;10.016;2022-09-09T10:32:13;21.30;99.90
29713;DHT22;16623;53.632;10.016;2022-09-09T10:35:11;21.90;99.90
29713;DHT22;16623;53.632;10.016;2022-09-09T10:40:37;22.00;99.90
29713;DHT22;16623;53.632;10.016;2022-09-09T10:49:09;22.70;99.90
29713;DHT22;16623;53.632;10.016;2022-09-09T10:52:02;22.70;99.90
29713;DHT22;16623;53.632;10.016;2022-09-09T10:57:33;22.10;99.90
29713;DHT22;16623;53.632;10.016;2022-09-09T11:00:06;21.90;99.90
29713;DHT22;16623;53.632;10.016;2022-09-09T11:02:33;21.80;99.90
29713;DHT22;16623;53.632;10.016;2022-09-09T11:05:14;21.50;99.90
29713;DHT22;16623;53.632;10.016;2022-09-09T11:07:44;21.40;99.90
29713;DHT22;16623;53.632;10.016;2022-09-09T11:12:48;21.00;99.90
29713;DHT22;16623;53.632;10.016;2022-09-09T11:15:20;20.80;99.90
29713;DHT22;16623;53.632;10.016;2022-09-09T11:17:52;20.70;99.90
29713;DHT22;16623;53.632;10.016;2022-09-09T11:20:20;20.60;99.90
29713;DHT22;16623;53.632;10.016;2022-09-09T11:23:01;20.60;99.90
29713;DHT22;16623;53.632;10.016;2022-09-09T11:25:40;20.50;99.90
29713;DHT22;16623;53.632;10.016;2022-09-09T11:36:41;20.30;99.90
29713;DHT22;16623;53.632;10.016;2022-09-09T11:42:06;20.50;99.90
29713;DHT22;16623;53.632;10.016;2022-09-09T11:44:32;20.50;99.90
29713;DHT22;16623;53.632;10.016;2022-09-09T11:46:58;20.50;99.90
29713;DHT22;16623;53.632;10.016;2022-09-09T11:52:11;20.60;99.90
29713;DHT22;16623;53.632;10.016;2022-09-09T11:54:46;20.60;99.90
29713;DHT22;16623;53.632;10.016;2022-09-09T11:57:31;20.60;99.90
29713;DHT22;16623;53.632;10.016;2022-09-09T11:59:57;20.70;99.90
29713;DHT22;16623;53.632;10.016;2022-09-09T12:02:26;20.90;99.90
29713;DHT22;16623;53.632;10.016;2022-09-09T12:04:59;20.90;99.90
29713;DHT22;16623;53.632;10.016;2022-09-09T12:07:35;20.80;99.90
29713;DHT22;16623;53.632;10.016;2022-09-09T12:10:26;20.70;99.90
29713;DHT22;16623;53.632;10.016;2022-09-09T12:12:55;20.60;99.90
29713;DHT22;16623;53.632;10.016;2022-09-09T12:15:32;20.60;99.90
29713;DHT22;16623;53.632;10.016;2022-09-09T12:17:59;20.40;99.90
29713;DHT22;16623;53.632;10.016;2022-09-09T12:20:31;20.40;99.90
29713;DHT22;16623;53.632;10.016;2022-09-09T12:23:25;20.20;99.90
29713;DHT22;16623;53.632;10.016;2022-09-09T12:28:49;20.10;99.90
29713;DHT22;16623;53.632;10.016;2022-09-09T12:33:47;19.90;99.90
29713;DHT22;16623;53.632;10.016;2022-09-09T12:36:31;19.80;99.90
29713;DHT22;16623;53.632;10.016;2022-09-09T12:38:59;19.90;99.90
29713;DHT22;16623;53.632;10.016;2022-09-09T12:41:35;19.80;99.90
29713;DHT22;16623;53.632;10.016;2022-09-09T12:44:09;19.80;99.90
29713;DHT22;16623;53.632;10.016;2022-09-09T12:46:41;19.90;99.90
29713;DHT22;16623;53.632;10.016;2022-09-09T12:51:56;19.90;99.90
29713;DHT22;16623;53.632;10.016;2022-09-09T12:54:23;20.00;99.90
29713;DHT22;16623;53.632;10.016;2022-09-09T12:56:49;19.90;99.90
29713;DHT22;16623;53.632;10.016;2022-09-09T12:59:34;19.80;99.90
29713;DHT22;16623;53.632;10.016;2022-09-09T13:02:16;19.70;99.90
29713;DHT22;16623;53.632;10.016;2022-09-09T13:04:43;19.60;99.90
29713;DHT22;16623;53.632;10.016;2022-09-09T13:07:11;19.30;99.90
29713;DHT22;16623;53.632;10.016;2022-09-09T13:09:37;19.00;99.90
29713;DHT22;16623;53.632;10.016;2022-09-09T13:12:05;18.90;99.90
29713;DHT22;16623;53.632;10.016;2022-09-09T13:14:34;18.90;99.90
29713;DHT22;16623;53.632;10.016;2022-09-09T13:17:04;18.80;99.90
29713;DHT22;16623;53.632;10.016;2022-09-09T13:19:37;18.80;99.90
29713;DHT22;16623;53.632;10.016;2022-09-09T13:22:26;18.70;99.90
29713;DHT22;16623;53.632;10.016;2022-09-09T13:25:04;18.70;99.90
29713;DHT22;16623;53.632;10.016;2022-09-09T13:27:31;18.60;99.90
29713;DHT22;16623;53.632;10.016;2022-09-09T13:29:57;18.60;99.90
29713;DHT22;16623;53.632;10.016;2022-09-09T13:32:24;18.60;99.90
29713;DHT22;16623;53.632;10.016;2022-09-09T13:34:56;18.50;99.90
29713;DHT22;16623;53.632;10.016;2022-09-09T13:37:37;18.50;99.90
29713;DHT22;16623;53.632;10.016;2022-09-09T13:40:04;18.30;99.90
29713;DHT22;16623;53.632;10.016;2022-09-09T13:42:37;18.40;99.90
29713;DHT22;16623;53.632;10.016;2022-09-09T13:45:04;18.30;99.90
29713;DHT22;16623;53.632;10.016;2022-09-09T13:47:33;18.30;99.90
29713;DHT22;16623;53.632;10.016;2022-09-09T13:50:27;18.30;99.90
29713;DHT22;16623;53.632;10.016;2022-09-09T13:52:58;18.10;99.90
29713;DHT22;16623;53.632;10.016;2022-09-09T13:55:28;18.00;99.90
29713;DHT22;16623;53.632;10.016;2022-09-09T13:57:59;17.90;99.90
29713;DHT22;16623;53.632;10.016;2022-09-09T14:00:28;17.80;99.90
29713;DHT22;16623;53.632;10.016;2022-09-09T14:02:54;17.70;99.90
29713;DHT22;16623;53.632;10.016;2022-09-09T14:05:21;17.60;99.90
29713;DHT22;16623;53.632;10.016;2022-09-09T14:07:47;17.50;99.90
29713;DHT22;16623;53.632;10.016;2022-09-09T14:10:14;17.40;99.90
29713;DHT22;16623;53.632;10.016;2022-09-09T14:12:39;17.40;99.90
29713;DHT22;16623;53.632;10.016;2022-09-09T14:15:07;17.40;99.90
29713;DHT22;16623;53.632;10.016;2022-09-09T14:17:33;17.30;99.90
29713;DHT22;16623;53.632;10.016;2022-09-09T14:19:59;17.30;99.90
29713;DHT22;16623;53.632;10.016;2022-09-09T14:22:24;17.30;99.90
29713;DHT22;16623;53.632;10.016;2022-09-09T14:24:51;17.30;99.90
29713;DHT22;16623;53.632;10.016;2022-09-09T14:27:20;17.30;99.90
29713;DHT22;16623;53.632;10.016;2022-09-09T14:29:45;17.40;99.90
29713;DHT22;16623;53.632;10.016;2022-09-09T14:32:12;17.40;99.90
29713;DHT22;16623;53.632;10.016;2022-09-09T14:34:37;17.50;99.90
29713;DHT22;16623;53.632;10.016;2022-09-09T14:37:03;17.40;99.90
29713;DHT22;16623;53.632;10.016;2022-09-09T14:39:28;17.40;99.90
29713;DHT22;16623;53.632;10.016;2022-09-09T14:41:55;17.40;99.90
29713;DHT22;16623;53.632;10.016;2022-09-09T14:44:21;17.40;99.90
29713;DHT22;16623;53.632;10.016;2022-09-09T14:46:49;17.40;99.90
29713;DHT22;16623;53.632;10.016;2022-09-09T14:49:16;17.40;99.90
29713;DHT22;16623;53.632;10.016;2022-09-09T14:51:41;17.50;99.90
29713;DHT22;16623;53.632;10.016;2022-09-09T14:54:07;17.40;99.90
29713;DHT22;16623;53.632;10.016;2022-09-09T14:56:33;17.50;99.90
29713;DHT22;16623;53.632;10.016;2022-09-09T14:59:02;17.50;99.90
29713;DHT22;16623;53.632;10.016;2022-09-09T15:01:29;17.50;99.90
29713;DHT22;16623;53.632;10.016;2022-09-09T15:03:57;17.40;99.90
29713;DHT22;16623;53.632;10.016;2022-09-09T15:06:24;17.30;99.90
29713;DHT22;16623;53.632;10.016;2022-09-09T15:08:52;17.20;99.90
29713;DHT22;16623;53.632;10.016;2022-09-09T15:11:18;17.10;99.90
29713;DHT22;16623;53.632;10.016;2022-09-09T15:13:44;17.10;99.90
29713;DHT22;16623;53.632;10.016;2022-09-09T15:16:18;17.10;99.90
29713;DHT22;16623;53.632;10.016;2022-09-09T15:18:45;17.10;99.90
29713;DHT22;16623;53.632;10.016;2022-09-09T15:21:16;17.10;99.90
29713;DHT22;16623;53.632;10.016;2022-09-09T15:23:43;17.20;99.90
29713;DHT22;16623;53.632;10.016;2022-09-09T15:26:09;17.20;99.90
29713;DHT22;16623;53.632;10.016;2022-09-09T15:28:37;17.20;99.90
29713;DHT22;16623;53.632;10.016;2022-09-09T15:31:08;17.20;99.90
29713;DHT22;16623;53.632;10.016;2022-09-09T15:33:35;17.20;99.90
29713;DHT22;16623;53.632;10.016;2022-09-09T15:36:24;17.30;99.90
29713;DHT22;16623;53.632;10.016;2022-09-09T15:38:51;17.30;99.90
29713;DHT22;16623;53.632;10.016;2022-09-09T15:41:17;17.30;99.90
29713;DHT22;16623;53.632;10.016;2022-09-09T15:43:48;17.30;99.90
29713;DHT22;16623;53.632;10.016;2022-09-09T15:46:36;17.30;99.90
29713;DHT22;16623;53.632;10.016;2022-09-09T15:49:09;17.20;99.90
29713;DHT22;16623;53.632;10.016;2022-09-09T15:51:37;17.20;99.90
29713;DHT22;16623;53.632;10.016;2022-09-09T15:54:03;17.30;99.90
29713;DHT22;16623;53.632;10.016;2022-09-09T15:56:30;17.30;99.90
29713;DHT22;16623;53.632;10.016;2022-09-09T15:58:58;17.30;99.90
29713;DHT22;16623;53.632;10.016;2022-09-09T16:01:26;17.30;99.90
29713;DHT22;16623;53.632;10.016;2022-09-09T16:03:52;17.30;99.90
29713;DHT22;16623;53.632;10.016;2022-09-09T16:06:20;17.30;99.90
29713;DHT22;16623;53.632;10.016;2022-09-09T16:08:48;17.40;99.90
29713;DHT22;16623;53.632;10.016;2022-09-09T16:11:18;17.40;99.90
29713;DHT22;16623;53.632;10.016;2022-09-09T16:13:46;17.50;99.90
29713;DHT22;16623;53.632;10.016;2022-09-09T16:16:12;17.50;99.90
29713;DHT22;16623;53.632;10.016;2022-09-09T16:18:46;17.50;99.90
29713;DHT22;16623;53.632;10.016;2022-09-09T16:21:15;17.40;99.90
29713;DHT22;16623;53.632;10.016;2022-09-09T16:23:42;17.50;99.90
29713;DHT22;16623;53.632;10.016;2022-09-09T16:26:13;17.50;99.90
29713;DHT22;16623;53.632;10.016;2022-09-09T16:28:39;17.40;99.90
29713;DHT22;16623;53.632;10.016;2022-09-09T16:31:06;17.30;99.90
29713;DHT22;16623;53.632;10.016;2022-09-09T16:33:32;17.30;99.90
29713;DHT22;16623;53.632;10.016;2022-09-09T16:35:57;17.30;99.90
29713;DHT22;16623;53.632;10.016;2022-09-09T16:38:23;17.30;99.90
29713;DHT22;16623;53.632;10.016;2022-09-09T16:40:49;17.40;99.90
29713;DHT22;16623;53.632;10.016;2022-09-09T16:43:15;17.40;99.90
29713;DHT22;16623;53.632;10.016;2022-09-09T16:45:44;17.40;99.90
29713;DHT22;16623;53.632;10.016;2022-09-09T16:48:11;17.40;99.90
29713;DHT22;16623;53.632;10.016;2022-09-09T16:50:39;17.40;99.90
29713;DHT22;16623;53.632;10.016;2022-09-09T16:53:05;17.30;99.90
29713;DHT22;16623;53.632;10.016;2022-09-09T16:55:37;17.30;99.90